Time;durP1;ratioP1;P1;durP2;ratioP2;P2;SDS_P1;SDS_P2;PMS_P1;PMS_P2;Temp;Humidity;BMP_temperature;BMP_pressure;BME280_temperature;BME280_humidity;BME280_pressure;Samples;Min_cycle;Max_cycle;Signal;HPM_P1;HPM_P2
2023/12/05 00:01:35;;;;;;;25.40;10.65;;;-3.40;99.90;;;;;;4191945;28;20481;-58
2023/12/05 00:03:36;;;;;;;21.30;10.90;;;-3.40;99.90;;;;;;4193035;28;20033;-58
2023/12/05 00:05:38;;;;;;;21.80;11.50;;;-3.40;99.90;;;;;;4192217;28;20718;-59
2023/12/05 00:07:39;;;;;;;22.23;10.00;;;-3.40;99.90;;;;;;4192392;28;20357;-54
2023/12/05 00:09:40;;;;;;;20.90;10.00;;;-3.30;99.90;;;;;;4192474;28;20291;-52
2023/12/05 00:11:41;;;;;;;20.47;10.13;;;-3.20;99.90;;;;;;4192345;28;20346;-57
2023/12/05 00:13:43;;;;;;;20.97;10.00;;;-3.20;99.90;;;;;;4190950;28;20286;-57
2023/12/05 00:15:44;;;;;;;19.03;9.57;;;-3.20;99.90;;;;;;4192660;28;20297;-58
2023/12/05 00:17:45;;;;;;;17.00;9.37;;;-3.20;99.90;;;;;;4192496;28;20269;-55
2023/12/05 00:19:46;;;;;;;22.48;10.23;;;-3.20;99.90;;;;;;4192454;28;20338;-58
2023/12/05 00:21:47;;;;;;;22.90;10.20;;;-3.10;99.90;;;;;;4192614;28;20134;-55
2023/12/05 00:23:49;;;;;;;16.83;9.03;;;-3.20;99.90;;;;;;4192685;28;20311;-56
2023/12/05 00:25:50;;;;;;;18.57;9.07;;;-3.20;99.90;;;;;;4192269;28;20307;-55
2023/12/05 00:27:51;;;;;;;20.03;9.70;;;-3.10;99.90;;;;;;4191628;28;20285;-57
2023/12/05 00:29:52;;;;;;;19.75;9.52;;;-3.10;99.90;;;;;;4191897;28;20289;-55
2023/12/05 00:31:53;;;;;;;22.87;11.50;;;-3.20;99.90;;;;;;4192337;28;20488;-56
2023/12/05 00:33:55;;;;;;;19.63;9.43;;;-3.20;99.90;;;;;;4192803;28;20273;-58
2023/12/05 00:35:56;;;;;;;20.47;9.70;;;-3.20;99.90;;;;;;4191039;28;20351;-55
2023/12/05 00:37:57;;;;;;;21.40;10.53;;;-3.20;99.90;;;;;;4192443;28;20618;-60
2023/12/05 00:39:58;;;;;;;18.63;9.47;;;-3.10;99.90;;;;;;4192173;28;20791;-56
2023/12/05 00:41:59;;;;;;;19.70;9.83;;;-3.10;99.90;;;;;;4192830;28;20265;-58
2023/12/05 00:44:00;;;;;;;21.92;9.48;;;-3.10;99.90;;;;;;4192290;28;20274;-57
2023/12/05 00:46:02;;;;;;;18.17;7.70;;;-3.10;99.90;;;;;;4192592;28;20101;-57
2023/12/05 00:48:03;;;;;;;24.57;9.33;;;-3.10;99.90;;;;;;4191547;28;20311;-57
2023/12/05 00:50:05;;;;;;;20.67;10.60;;;-3.10;99.90;;;;;;4193142;28;20350;-58
2023/12/05 00:52:06;;;;;;;21.80;11.90;;;-3.20;99.90;;;;;;4191437;28;20261;-55
2023/12/05 00:54:07;;;;;;;19.33;10.20;;;-3.20;99.90;;;;;;4191725;28;20266;-52
2023/12/05 00:56:10;;;;;;;17.80;10.27;;;-3.30;99.90;;;;;;4191375;28;20358;-57
2023/12/05 00:58:12;;;;;;;19.60;9.40;;;-3.20;99.90;;;;;;4192035;28;20331;-56
2023/12/05 01:00:13;;;;;;;17.97;9.30;;;-3.20;99.90;;;;;;4192198;28;20649;-58
2023/12/05 01:02:14;;;;;;;19.93;9.97;;;-3.30;99.90;;;;;;4191202;28;20274;-59
2023/12/05 01:04:16;;;;;;;23.43;9.73;;;-3.20;99.90;;;;;;4192026;28;20839;-56
2023/12/05 01:06:18;;;;;;;21.27;10.03;;;-3.10;99.90;;;;;;4192119;28;20806;-58
2023/12/05 01:08:19;;;;;;;18.10;9.43;;;-3.10;99.90;;;;;;4191818;28;20307;-58
2023/12/05 01:10:20;;;;;;;17.60;8.40;;;-3.00;99.90;;;;;;4190867;28;20277;-56
2023/12/05 01:12:21;;;;;;;20.57;8.90;;;-3.10;99.90;;;;;;4191418;28;20289;-57
2023/12/05 01:14:22;;;;;;;17.43;9.97;;;-3.10;99.90;;;;;;4190964;28;20285;-58
2023/12/05 01:16:23;;;;;;;19.43;9.47;;;-3.10;99.90;;;;;;4192425;28;20297;-56
2023/12/05 01:18:27;;;;;;;19.67;9.47;;;-3.20;99.90;;;;;;4193235;28;20269;-58
2023/12/05 01:20:28;;;;;;;22.03;10.10;;;-3.20;99.90;;;;;;4195748;28;20281;-57
2023/12/05 01:22:30;;;;;;;19.13;10.00;;;-3.20;99.90;;;;;;4194236;28;20269;-56
2023/12/05 01:24:31;;;;;;;20.43;9.93;;;-3.20;99.90;;;;;;4195511;28;20482;-58
2023/12/05 01:26:32;;;;;;;17.83;9.40;;;-3.20;99.90;;;;;;4194635;28;20318;-55
2023/12/05 01:28:33;;;;;;;19.03;9.47;;;-3.30;99.90;;;;;;4194891;28;20262;-58
2023/12/05 01:30:34;;;;;;;18.77;9.50;;;-3.30;99.90;;;;;;4195361;28;20305;-58
2023/12/05 01:32:35;;;;;;;19.50;10.07;;;-3.30;99.90;;;;;;4194054;28;20281;-58
2023/12/05 01:34:36;;;;;;;22.33;11.27;;;-3.40;99.90;;;;;;4194623;28;20273;-57
2023/12/05 01:36:38;;;;;;;26.00;11.10;;;-3.40;99.90;;;;;;4195050;28;20289;-57
2023/12/05 01:38:39;;;;;;;20.60;9.83;;;-3.40;99.90;;;;;;4194352;28;20273;-58
2023/12/05 01:40:40;;;;;;;20.73;9.93;;;-3.40;99.90;;;;;;4195016;28;20734;-56
2023/12/05 01:42:41;;;;;;;19.97;8.90;;;-3.40;99.90;;;;;;4194879;28;20285;-57
2023/12/05 01:44:42;;;;;;;23.57;11.43;;;-3.40;99.90;;;;;;4194669;28;20269;-57
2023/12/05 01:46:45;;;;;;;20.63;10.43;;;-3.40;99.90;;;;;;4193752;28;20338;-54
2023/12/05 01:48:47;;;;;;;22.73;10.73;;;-3.50;99.90;;;;;;4193878;28;20326;-58
2023/12/05 01:50:48;;;;;;;18.37;9.40;;;-3.60;99.90;;;;;;4195000;28;20098;-59
2023/12/05 01:52:56;;;;;;;23.23;11.07;;;-3.60;99.90;;;;;;4194997;28;20245;-54
2023/12/05 01:54:57;;;;;;;21.10;10.13;;;-3.70;99.90;;;;;;4183290;28;20825;-59
2023/12/05 01:57:00;;;;;;;19.33;10.23;;;-3.70;99.90;;;;;;4194214;28;20301;-57
2023/12/05 01:59:02;;;;;;;21.93;10.23;;;-3.60;99.90;;;;;;4194510;28;20629;-55
2023/12/05 02:01:08;;;;;;;17.80;9.67;;;-3.60;99.90;;;;;;4193969;28;20273;-58
2023/12/05 02:03:09;;;;;;;22.67;10.33;;;-3.60;99.90;;;;;;4193402;28;20346;-56
2023/12/05 02:05:11;;;;;;;19.13;9.97;;;-3.60;99.90;;;;;;4194161;28;20434;-51
2023/12/05 02:07:13;;;;;;;20.60;10.90;;;-3.60;99.90;;;;;;4194111;28;20346;-57
2023/12/05 02:09:16;;;;;;;22.73;11.10;;;-3.60;99.90;;;;;;4195064;28;20327;-56
2023/12/05 02:11:17;;;;;;;27.17;12.10;;;-3.60;99.90;;;;;;4193531;28;20269;-56
2023/12/05 02:13:18;;;;;;;22.47;11.87;;;-3.60;99.90;;;;;;4194225;28;20338;-56
2023/12/05 02:15:20;;;;;;;20.57;10.77;;;-3.60;99.90;;;;;;4194255;28;20314;-58
2023/12/05 02:17:52;;;;;;;22.30;11.57;;;-3.60;99.90;;;;;;4194838;28;20320;-55
2023/12/05 02:20:08;;;;;;;21.38;9.85;;;-3.60;99.90;;;;;;4192030;28;20048;-57
2023/12/05 02:22:38;;;;;;;23.13;10.17;;;-3.60;99.90;;;;;;4193848;28;20040;-56
2023/12/05 02:24:56;;;;;;;24.90;11.70;;;-3.50;99.90;;;;;;4157037;28;20269;-58
2023/12/05 02:27:24;;;;;;;22.10;10.27;;;-3.50;99.90;;;;;;4192776;28;20722;-58
2023/12/05 02:29:25;;;;;;;18.70;10.40;;;-3.40;99.90;;;;;;4173939;28;20040;-54
2023/12/05 02:31:26;;;;;;;21.43;9.87;;;-3.40;99.90;;;;;;4193515;28;20079;-58
2023/12/05 02:33:28;;;;;;;20.70;10.10;;;-3.30;99.90;;;;;;4193787;28;20265;-59
2023/12/05 02:35:29;;;;;;;20.23;9.90;;;-3.30;99.90;;;;;;4193649;28;20773;-59
2023/12/05 02:37:54;;;;;;;18.73;9.70;;;-3.20;99.90;;;;;;4194133;28;20094;-55
2023/12/05 02:40:12;;;;;;;22.77;9.43;;;-3.20;99.90;;;;;;4184299;28;20706;-58
2023/12/05 02:42:17;;;;;;;21.93;10.47;;;-3.10;99.90;;;;;;4193696;28;20795;-57
2023/12/05 02:44:19;;;;;;;20.90;9.63;;;-3.10;99.90;;;;;;4193528;28;20254;-59
2023/12/05 02:46:21;;;;;;;17.67;9.60;;;-3.10;99.90;;;;;;4194066;28;20257;-59
2023/12/05 02:48:24;;;;;;;23.57;11.27;;;-3.10;99.90;;;;;;4194194;28;20331;-51
2023/12/05 02:50:25;;;;;;;21.03;10.90;;;-3.10;99.90;;;;;;4194190;28;20270;-57
2023/12/05 02:52:26;;;;;;;19.70;9.80;;;-3.20;99.90;;;;;;4193219;28;20758;-55
2023/12/05 02:54:27;;;;;;;17.73;9.33;;;-3.30;99.90;;;;;;4192981;28;20327;-59
2023/12/05 02:56:29;;;;;;;19.23;9.70;;;-3.30;99.90;;;;;;4194245;28;20442;-57
2023/12/05 02:58:30;;;;;;;20.30;9.70;;;-3.30;99.90;;;;;;4193478;28;20269;-53
2023/12/05 03:00:31;;;;;;;18.93;9.27;;;-3.20;99.90;;;;;;4194529;28;20273;-55
2023/12/05 03:02:32;;;;;;;23.73;10.43;;;-3.10;99.90;;;;;;4193033;28;20339;-55
2023/12/05 03:04:33;;;;;;;20.03;9.80;;;-3.10;99.90;;;;;;4173711;28;20324;-59
2023/12/05 03:06:35;;;;;;;19.53;9.90;;;-3.10;99.90;;;;;;4193860;28;20384;-56
2023/12/05 03:08:36;;;;;;;20.57;10.13;;;-3.10;99.90;;;;;;4193803;28;20740;-55
2023/12/05 03:10:37;;;;;;;19.57;9.43;;;-3.10;99.90;;;;;;4193677;28;20307;-57
2023/12/05 03:12:38;;;;;;;18.33;9.73;;;-3.10;99.90;;;;;;4193138;28;20281;-58
2023/12/05 03:14:39;;;;;;;18.40;9.35;;;-3.10;99.90;;;;;;4193355;28;20691;-53
2023/12/05 03:16:43;;;;;;;21.80;10.33;;;-3.10;99.90;;;;;;4193785;28;20431;-57
2023/12/05 03:18:44;;;;;;;23.60;10.83;;;-3.10;99.90;;;;;;4193034;28;20753;-55
2023/12/05 03:20:45;;;;;;;20.53;9.00;;;-3.10;99.90;;;;;;4193721;28;20270;-58
2023/12/05 03:22:46;;;;;;;22.47;10.63;;;-3.10;99.90;;;;;;4193522;28;20328;-54
2023/12/05 03:24:47;;;;;;;19.73;9.60;;;-3.10;99.90;;;;;;4191405;28;20668;-57
2023/12/05 03:26:49;;;;;;;20.27;10.30;;;-3.20;99.90;;;;;;4193825;28;20335;-56
2023/12/05 03:28:51;;;;;;;21.40;9.80;;;-3.20;99.90;;;;;;4192802;28;20757;-58
2023/12/05 03:30:52;;;;;;;24.00;11.17;;;-3.20;99.90;;;;;;4194012;28;20273;-57
2023/12/05 03:32:53;;;;;;;20.70;9.63;;;-3.20;99.90;;;;;;4192908;28;20691;-55
2023/12/05 03:34:55;;;;;;;20.07;10.33;;;-3.20;99.90;;;;;;4193754;28;20733;-58
2023/12/05 03:36:56;;;;;;;19.47;9.03;;;-3.20;99.90;;;;;;4191988;28;20749;-59
2023/12/05 03:38:57;;;;;;;23.17;10.77;;;-3.20;99.90;;;;;;4193877;28;20734;-58
2023/12/05 03:40:58;;;;;;;18.30;9.37;;;-3.20;99.90;;;;;;4192648;28;20633;-56
2023/12/05 03:42:59;;;;;;;33.47;11.27;;;-3.20;99.90;;;;;;4192869;28;21164;-57
2023/12/05 03:45:01;;;;;;;19.60;9.07;;;-3.20;99.90;;;;;;4193441;28;20753;-55
2023/12/05 03:47:02;;;;;;;19.40;8.83;;;-3.20;99.90;;;;;;4192416;28;20622;-58
2023/12/05 03:49:03;;;;;;;20.60;10.17;;;-3.20;99.90;;;;;;4191667;28;20274;-56
2023/12/05 03:51:05;;;;;;;22.43;10.17;;;-3.20;99.90;;;;;;4193292;28;20261;-56
2023/12/05 03:53:06;;;;;;;17.70;9.57;;;-3.20;99.90;;;;;;4191854;28;20763;-58
2023/12/05 03:55:07;;;;;;;20.37;10.23;;;-3.20;99.90;;;;;;4191872;28;20281;-56
2023/12/05 03:57:08;;;;;;;19.90;10.67;;;-3.20;99.90;;;;;;4192064;28;20347;-56
2023/12/05 03:59:10;;;;;;;19.97;9.93;;;-3.20;99.90;;;;;;4191117;28;20281;-58
2023/12/05 04:01:11;;;;;;;21.13;10.43;;;-3.20;99.90;;;;;;4193118;28;20273;-55
2023/12/05 04:03:14;;;;;;;20.87;10.33;;;-3.20;99.90;;;;;;4192017;28;20261;-57
2023/12/05 04:05:16;;;;;;;16.97;9.13;;;-3.20;99.90;;;;;;4193300;28;20347;-57
2023/12/05 04:07:17;;;;;;;20.90;10.27;;;-3.20;99.90;;;;;;4191499;28;20291;-56
2023/12/05 04:09:18;;;;;;;20.33;10.60;;;-3.10;99.90;;;;;;4192936;28;20346;-59
2023/12/05 04:11:29;;;;;;;18.93;9.53;;;-3.10;99.90;;;;;;4174726;28;20312;-61
2023/12/05 04:13:31;;;;;;;22.93;10.77;;;-3.10;99.90;;;;;;4191847;28;20297;-58
2023/12/05 04:15:32;;;;;;;18.50;9.03;;;-3.10;99.90;;;;;;4191478;28;20776;-57
2023/12/05 04:17:34;;;;;;;18.73;9.33;;;-3.10;99.90;;;;;;4192932;28;20765;-60
2023/12/05 04:19:35;;;;;;;16.47;9.07;;;-3.10;99.90;;;;;;4192880;28;20799;-58
2023/12/05 04:21:36;;;;;;;20.33;10.03;;;-3.10;99.90;;;;;;4191804;28;20642;-56
2023/12/05 04:23:37;;;;;;;22.97;10.60;;;-3.10;99.90;;;;;;4191741;28;20322;-58
2023/12/05 04:25:38;;;;;;;20.47;9.93;;;-3.10;99.90;;;;;;4192745;28;20371;-59
2023/12/05 04:27:39;;;;;;;16.67;8.93;;;-3.00;99.90;;;;;;4192395;28;20623;-58
2023/12/05 04:29:42;;;;;;;17.47;9.40;;;-3.00;99.90;;;;;;4192469;28;20266;-58
2023/12/05 04:31:43;;;;;;;19.40;9.83;;;-3.00;99.90;;;;;;4193183;28;20281;-56
2023/12/05 04:33:44;;;;;;;17.57;9.47;;;-2.90;99.90;;;;;;4192636;28;20304;-57
2023/12/05 04:35:45;;;;;;;18.07;9.20;;;-2.90;99.90;;;;;;4192797;28;20803;-55
2023/12/05 04:37:47;;;;;;;16.57;8.80;;;-2.90;99.90;;;;;;4191797;28;20699;-56
2023/12/05 04:39:48;;;;;;;19.17;9.30;;;-2.90;99.90;;;;;;4192307;28;20599;-56
2023/12/05 04:41:49;;;;;;;18.33;9.97;;;-2.90;99.90;;;;;;4190202;28;20651;-54
2023/12/05 04:43:50;;;;;;;32.73;13.03;;;-2.90;99.90;;;;;;4192943;28;20258;-57
2023/12/05 04:45:52;;;;;;;22.73;10.60;;;-2.80;99.90;;;;;;4192149;28;20269;-58
2023/12/05 04:47:53;;;;;;;21.70;10.87;;;-2.90;99.90;;;;;;4192044;28;20332;-57
2023/12/05 04:49:54;;;;;;;25.30;10.83;;;-2.90;99.90;;;;;;4191261;28;20757;-58
2023/12/05 04:51:55;;;;;;;26.10;9.67;;;-2.90;99.90;;;;;;4191704;28;20803;-58
2023/12/05 04:53:57;;;;;;;21.37;10.10;;;-2.90;99.90;;;;;;4191290;28;20281;-57
2023/12/05 04:55:58;;;;;;;22.63;10.77;;;-3.00;99.90;;;;;;4191726;28;20335;-57
2023/12/05 04:57:59;;;;;;;18.70;10.37;;;-2.90;99.90;;;;;;4192451;28;20297;-58
2023/12/05 05:00:00;;;;;;;20.27;10.20;;;-3.00;99.90;;;;;;4191065;28;20273;-58
2023/12/05 05:02:01;;;;;;;21.40;10.20;;;-3.00;99.90;;;;;;4191509;28;20273;-53
2023/12/05 05:04:03;;;;;;;19.07;10.07;;;-3.00;99.90;;;;;;4173235;28;20396;-58
2023/12/05 05:06:05;;;;;;;21.13;10.57;;;-3.00;99.90;;;;;;4192715;28;20269;-57
2023/12/05 05:08:06;;;;;;;23.93;11.07;;;-3.00;99.90;;;;;;4190857;28;20265;-58
2023/12/05 05:10:07;;;;;;;21.47;10.70;;;-3.00;99.90;;;;;;4192726;28;20257;-57
2023/12/05 05:12:10;;;;;;;18.80;10.83;;;-2.90;99.90;;;;;;4190343;28;20277;-58
2023/12/05 05:14:11;;;;;;;21.90;10.43;;;-2.90;99.90;;;;;;4190236;28;20346;-57
2023/12/05 05:16:12;;;;;;;22.47;11.33;;;-2.90;99.90;;;;;;4191716;28;20277;-57
2023/12/05 05:18:13;;;;;;;19.93;10.67;;;-2.80;99.90;;;;;;4173171;28;20676;-58
2023/12/05 05:20:15;;;;;;;21.00;11.80;;;-2.90;99.90;;;;;;4191579;28;21148;-57
2023/12/05 05:22:16;;;;;;;21.77;10.77;;;-2.90;99.90;;;;;;4190819;28;20283;-58
2023/12/05 05:24:17;;;;;;;20.70;10.30;;;-2.90;99.90;;;;;;4172890;28;20278;-54
2023/12/05 05:26:18;;;;;;;22.30;10.43;;;-2.90;99.90;;;;;;4190821;28;20343;-59
2023/12/05 05:28:19;;;;;;;22.43;10.33;;;-3.00;99.90;;;;;;4191391;28;20277;-58
2023/12/05 05:30:20;;;;;;;24.40;11.17;;;-3.00;99.90;;;;;;4191400;28;20334;-57
2023/12/05 05:32:22;;;;;;;19.77;10.50;;;-3.00;99.90;;;;;;4192110;28;20714;-56
2023/12/05 05:34:24;;;;;;;25.67;11.77;;;-3.10;99.90;;;;;;4179675;28;20639;-60
2023/12/05 05:36:25;;;;;;;22.70;10.60;;;-3.10;99.90;;;;;;4182619;28;20687;-59
2023/12/05 05:38:26;;;;;;;21.73;10.63;;;-3.10;99.90;;;;;;4191178;28;20289;-58
2023/12/05 05:40:28;;;;;;;22.37;9.27;;;-3.10;99.90;;;;;;4192320;28;20769;-59
2023/12/05 05:42:29;;;;;;;18.93;10.57;;;-3.10;99.90;;;;;;4190193;28;20311;-58
2023/12/05 05:44:30;;;;;;;18.83;10.10;;;-3.10;99.90;;;;;;4191405;28;20269;-58
2023/12/05 05:46:31;;;;;;;22.20;9.97;;;-3.10;99.90;;;;;;4190104;28;20266;-56
2023/12/05 05:48:33;;;;;;;17.83;9.00;;;-3.10;99.90;;;;;;4191796;28;20274;-55
2023/12/05 05:50:34;;;;;;;18.70;9.13;;;-3.10;99.90;;;;;;4190074;28;20310;-55
2023/12/05 05:52:35;;;;;;;16.80;9.17;;;-3.10;99.90;;;;;;4191472;28;20303;-61
2023/12/05 05:54:37;;;;;;;19.70;10.30;;;-3.10;99.90;;;;;;4191927;28;20319;-58
2023/12/05 05:56:41;;;;;;;18.53;9.63;;;-3.10;99.90;;;;;;4190348;28;20277;-57
2023/12/05 05:58:43;;;;;;;25.20;11.17;;;-3.20;99.90;;;;;;4189765;28;20278;-56
2023/12/05 06:00:45;;;;;;;20.57;9.70;;;-3.10;99.90;;;;;;4191255;28;20322;-55
2023/12/05 06:02:46;;;;;;;22.53;9.43;;;-3.20;99.90;;;;;;4191110;28;20265;-57
2023/12/05 06:04:47;;;;;;;20.13;9.97;;;-3.10;99.90;;;;;;4191079;28;20777;-58
2023/12/05 06:06:49;;;;;;;19.70;9.63;;;-3.10;99.90;;;;;;4194149;28;20266;-58
2023/12/05 06:08:50;;;;;;;20.77;9.67;;;-3.10;99.90;;;;;;4192374;28;20304;-57
2023/12/05 06:10:51;;;;;;;23.50;11.00;;;-3.10;99.90;;;;;;4193349;28;20263;-56
2023/12/05 06:12:53;;;;;;;27.97;11.50;;;-3.10;99.90;;;;;;4174876;28;20266;-56
2023/12/05 06:14:54;;;;;;;29.43;10.77;;;-3.10;99.90;;;;;;4193869;28;20277;-55
2023/12/05 06:16:55;;;;;;;24.23;11.87;;;-3.10;99.90;;;;;;4193571;28;20289;-57
2023/12/05 06:18:56;;;;;;;21.63;10.97;;;-3.10;99.90;;;;;;4194125;28;20273;-57
2023/12/05 06:20:57;;;;;;;27.20;11.43;;;-3.00;99.90;;;;;;4194360;28;20262;-58
2023/12/05 06:22:59;;;;;;;29.53;12.17;;;-3.00;99.90;;;;;;4194146;28;20266;-55
2023/12/05 06:25:00;;;;;;;25.07;11.37;;;-3.00;99.90;;;;;;4194529;28;20403;-58
2023/12/05 06:27:01;;;;;;;23.33;10.60;;;-3.00;99.90;;;;;;4194329;28;20838;-56
2023/12/05 06:29:08;;;;;;;37.03;10.87;;;-3.00;99.90;;;;;;4193295;28;20334;-58
2023/12/05 06:31:09;;;;;;;29.40;11.80;;;-3.00;99.90;;;;;;4194223;28;20254;-59
2023/12/05 06:33:10;;;;;;;28.20;11.17;;;-3.00;99.90;;;;;;4193854;28;20265;-56
2023/12/05 06:35:11;;;;;;;26.20;12.00;;;-3.10;99.90;;;;;;4193523;28;20345;-57
2023/12/05 06:37:13;;;;;;;23.70;10.63;;;-3.00;99.90;;;;;;4194560;28;20680;-56
2023/12/05 06:39:14;;;;;;;25.23;9.80;;;-3.00;99.90;;;;;;4192782;28;20257;-58
2023/12/05 06:41:15;;;;;;;21.77;9.90;;;-3.00;99.90;;;;;;4193952;28;20381;-57
2023/12/05 06:43:16;;;;;;;22.43;9.77;;;-3.00;99.90;;;;;;4193138;28;20712;-58
2023/12/05 06:45:17;;;;;;;19.23;10.03;;;-3.00;99.90;;;;;;4193756;28;20265;-58
2023/12/05 06:47:19;;;;;;;19.53;10.80;;;-3.00;99.90;;;;;;4192930;28;20318;-55
2023/12/05 06:49:22;;;;;;;21.97;9.23;;;-3.00;99.90;;;;;;4194107;28;20265;-58
2023/12/05 06:51:23;;;;;;;23.67;11.90;;;-3.00;99.90;;;;;;4193326;28;20270;-58
2023/12/05 06:53:25;;;;;;;25.90;11.03;;;-3.00;99.90;;;;;;4194254;28;20311;-57
2023/12/05 06:55:26;;;;;;;24.83;10.83;;;-2.90;99.90;;;;;;4193673;28;20303;-57
2023/12/05 06:57:28;;;;;;;22.63;10.33;;;-2.90;99.90;;;;;;4193804;28;20841;-57
2023/12/05 06:59:29;;;;;;;27.53;11.67;;;-2.90;99.90;;;;;;4192729;28;20273;-55
2023/12/05 07:01:30;;;;;;;22.67;9.70;;;-2.90;99.90;;;;;;4193602;28;20296;-57
2023/12/05 07:03:31;;;;;;;21.13;10.60;;;-2.90;99.90;;;;;;4193128;28;20281;-55
2023/12/05 07:05:32;;;;;;;25.27;10.53;;;-2.90;99.90;;;;;;4193653;28;20269;-56
2023/12/05 07:07:34;;;;;;;29.23;12.13;;;-2.90;99.90;;;;;;4193069;28;20273;-58
2023/12/05 07:09:35;;;;;;;27.03;12.27;;;-2.90;99.90;;;;;;4193547;28;20303;-58
2023/12/05 07:11:37;;;;;;;26.87;11.13;;;-2.90;99.90;;;;;;4194236;28;20755;-58
2023/12/05 07:13:38;;;;;;;25.33;11.90;;;-2.90;99.90;;;;;;4190639;28;20323;-56
2023/12/05 07:15:39;;;;;;;24.17;12.07;;;-2.90;99.90;;;;;;4193173;28;20320;-54
2023/12/05 07:17:40;;;;;;;33.57;11.90;;;-2.90;99.90;;;;;;4192990;28;20351;-58
2023/12/05 07:19:41;;;;;;;23.07;11.10;;;-2.90;99.90;;;;;;4193340;28;20307;-56
2023/12/05 07:21:43;;;;;;;23.50;11.20;;;-2.80;99.90;;;;;;4193708;28;20261;-56
2023/12/05 07:23:44;;;;;;;25.30;11.37;;;-2.80;99.90;;;;;;4193200;28;20335;-59
2023/12/05 07:25:45;;;;;;;19.57;10.37;;;-2.80;99.90;;;;;;4191987;28;20319;-56
2023/12/05 07:27:46;;;;;;;23.63;11.63;;;-2.80;99.90;;;;;;4193242;28;20773;-56
2023/12/05 07:29:47;;;;;;;25.40;11.10;;;-2.70;99.90;;;;;;4193490;28;20327;-57
2023/12/05 07:31:49;;;;;;;26.40;11.77;;;-2.80;99.90;;;;;;4175460;28;20258;-57
2023/12/05 07:33:51;;;;;;;25.67;12.40;;;-2.80;99.90;;;;;;4193534;28;20299;-57
2023/12/05 07:35:52;;;;;;;27.93;11.77;;;-2.80;99.90;;;;;;4193121;28;20417;-55
2023/12/05 07:37:53;;;;;;;31.10;11.47;;;-2.80;99.90;;;;;;4193641;28;20297;-55
2023/12/05 07:39:54;;;;;;;32.73;12.87;;;-2.80;99.90;;;;;;4192693;28;20688;-59
2023/12/05 07:41:55;;;;;;;26.67;13.27;;;-2.80;99.90;;;;;;4193696;28;20684;-58
2023/12/05 07:43:57;;;;;;;28.33;11.77;;;-2.80;99.90;;;;;;4192718;28;20315;-57
2023/12/05 07:45:58;;;;;;;40.93;13.30;;;-2.80;99.90;;;;;;4192797;28;20326;-57
2023/12/05 07:48:00;;;;;;;29.53;11.07;;;-2.70;99.90;;;;;;4192777;28;20268;-56
2023/12/05 07:50:01;;;;;;;25.63;11.57;;;-2.80;99.90;;;;;;4192623;28;20278;-53
2023/12/05 07:52:04;;;;;;;25.80;11.50;;;-2.80;99.90;;;;;;4192784;28;20749;-58
2023/12/05 07:54:05;;;;;;;26.37;12.77;;;-2.80;99.90;;;;;;4191796;28;20281;-57
2023/12/05 07:56:07;;;;;;;26.13;13.17;;;-2.70;99.90;;;;;;4192326;28;20665;-59
2023/12/05 07:58:08;;;;;;;30.77;13.67;;;-2.70;99.90;;;;;;4192668;28;20696;-59
2023/12/05 08:00:15;;;;;;;33.40;13.17;;;-2.70;99.90;;;;;;4192477;28;20610;-58
2023/12/05 08:02:17;;;;;;;25.50;12.30;;;-2.60;99.90;;;;;;4191710;28;20285;-58
2023/12/05 08:04:18;;;;;;;27.27;12.83;;;-2.50;99.90;;;;;;4193151;28;20398;-58
2023/12/05 08:06:19;;;;;;;28.87;11.57;;;-2.50;99.90;;;;;;4192085;28;20262;-58
2023/12/05 08:08:21;;;;;;;26.30;12.87;;;-2.50;99.90;;;;;;4193129;28;20277;-58
2023/12/05 08:10:23;;;;;;;29.40;12.30;;;-2.50;99.90;;;;;;4191839;28;20269;-58
2023/12/05 08:12:24;;;;;;;30.23;12.93;;;-2.50;99.90;;;;;;4192265;28;20269;-51
2023/12/05 08:14:25;;;;;;;31.50;13.13;;;-2.50;99.90;;;;;;4192252;28;20293;-57
2023/12/05 08:16:26;;;;;;;33.70;13.33;;;-2.40;99.90;;;;;;4192650;28;20326;-56
2023/12/05 08:18:27;;;;;;;30.10;12.77;;;-2.30;99.90;;;;;;4190977;28;20391;-58
2023/12/05 08:20:28;;;;;;;29.77;13.00;;;-2.20;99.90;;;;;;4192034;28;20718;-59
2023/12/05 08:22:30;;;;;;;29.23;12.87;;;-2.20;99.90;;;;;;4192499;28;20269;-58
2023/12/05 08:24:31;;;;;;;25.57;11.60;;;-2.10;99.90;;;;;;4192100;28;20269;-57
2023/12/05 08:26:34;;;;;;;26.03;11.43;;;-2.10;99.90;;;;;;4191143;28;20273;-57
2023/12/05 08:28:37;;;;;;;27.80;11.97;;;-2.10;99.90;;;;;;4192597;28;20630;-58
2023/12/05 08:30:39;;;;;;;23.20;12.47;;;-2.10;99.90;;;;;;4192454;28;20289;-57
2023/12/05 08:32:40;;;;;;;25.67;11.93;;;-2.10;99.90;;;;;;4191653;28;20281;-55
2023/12/05 08:34:41;;;;;;;27.73;12.87;;;-2.10;99.90;;;;;;4192684;28;20274;-57
2023/12/05 08:36:44;;;;;;;22.77;11.63;;;-2.00;99.90;;;;;;4192241;28;20334;-57
2023/12/05 08:38:45;;;;;;;28.77;13.47;;;-2.00;99.90;;;;;;4192574;28;20350;-57
2023/12/05 08:40:46;;;;;;;23.37;11.63;;;-2.00;99.90;;;;;;4191465;28;20749;-57
2023/12/05 08:42:47;;;;;;;26.17;11.83;;;-1.90;99.90;;;;;;4174703;28;20340;-58
2023/12/05 08:44:49;;;;;;;23.40;12.20;;;-1.90;99.90;;;;;;4192115;28;20418;-58
2023/12/05 08:46:50;;;;;;;28.07;12.30;;;-1.90;99.90;;;;;;4192855;28;20789;-57
2023/12/05 08:48:51;;;;;;;33.23;14.33;;;-1.90;99.90;;;;;;4191471;28;20676;-57
2023/12/05 08:50:52;;;;;;;33.53;13.80;;;-1.80;99.90;;;;;;4192488;28;20261;-55
2023/12/05 08:52:53;;;;;;;30.03;14.07;;;-1.80;99.90;;;;;;4192367;28;20621;-56
2023/12/05 08:54:55;;;;;;;31.00;13.37;;;-1.80;99.90;;;;;;4191616;28;20270;-57
2023/12/05 08:56:56;;;;;;;41.30;12.80;;;-1.70;99.90;;;;;;4191227;28;20257;-56
2023/12/05 08:58:57;;;;;;;27.57;13.20;;;-1.70;99.90;;;;;;4191849;28;20366;-59
2023/12/05 09:00:58;;;;;;;29.70;13.77;;;-1.60;99.90;;;;;;4192154;28;20273;-56
2023/12/05 09:03:00;;;;;;;26.63;11.20;;;-1.60;99.90;;;;;;4191484;28;20779;-54
2023/12/05 09:05:02;;;;;;;24.77;12.40;;;-1.50;99.90;;;;;;4192148;28;20315;-56
2023/12/05 09:07:03;;;;;;;28.97;10.73;;;-1.50;99.90;;;;;;4192256;28;20269;-57
2023/12/05 09:09:04;;;;;;;25.77;11.97;;;-1.50;99.90;;;;;;4192439;28;20273;-54
2023/12/05 09:11:06;;;;;;;26.07;12.23;;;-1.60;99.90;;;;;;4191138;28;20274;-57
2023/12/05 09:13:07;;;;;;;23.23;11.87;;;-1.60;99.90;;;;;;4191640;28;20363;-57
2023/12/05 09:15:08;;;;;;;23.63;11.10;;;-1.60;99.90;;;;;;4190661;28;20761;-57
2023/12/05 09:17:12;;;;;;;25.63;11.03;;;-1.60;99.90;;;;;;4192580;28;20310;-56
2023/12/05 09:19:13;;;;;;;23.30;10.63;;;-1.40;99.90;;;;;;4190872;28;20257;-58
2023/12/05 09:21:14;;;;;;;24.73;11.00;;;-1.40;99.90;;;;;;4191900;28;20319;-55
2023/12/05 09:23:15;;;;;;;21.97;10.77;;;-1.30;99.90;;;;;;4191164;28;20357;-56
2023/12/05 09:25:17;;;;;;;24.57;11.17;;;-1.30;99.90;;;;;;4191670;28;20269;-54
2023/12/05 09:27:18;;;;;;;26.53;11.77;;;-1.20;99.90;;;;;;4190912;28;20285;-58
2023/12/05 09:29:19;;;;;;;18.53;10.60;;;-1.20;99.90;;;;;;4192335;28;20258;-57
2023/12/05 09:31:20;;;;;;;24.07;11.30;;;-1.20;99.90;;;;;;4191126;28;20269;-57
2023/12/05 09:33:21;;;;;;;22.27;9.93;;;-1.20;99.90;;;;;;4191120;28;20273;-58
2023/12/05 09:35:23;;;;;;;25.80;10.77;;;-1.30;99.90;;;;;;4191358;28;20261;-58
2023/12/05 09:37:24;;;;;;;20.07;10.90;;;-1.30;99.90;;;;;;4191197;28;20315;-59
2023/12/05 09:39:25;;;;;;;22.80;11.07;;;-1.20;99.90;;;;;;4193787;28;20269;-59
2023/12/05 09:41:27;;;;;;;20.83;10.37;;;-1.10;99.90;;;;;;4194416;28;20262;-57
2023/12/05 09:43:29;;;;;;;18.70;10.47;;;-1.10;99.90;;;;;;4195264;28;20273;-59
2023/12/05 09:45:43;;;;;;;22.30;10.47;;;-1.10;99.90;;;;;;4194074;28;20269;-58
2023/12/05 09:47:49;;;;;;;20.90;9.87;;;-1.00;99.90;;;;;;4195379;28;20303;-54
2023/12/05 09:49:53;;;;;;;21.10;11.83;;;-1.00;99.90;;;;;;4193824;28;20319;-57
2023/12/05 09:51:54;;;;;;;25.47;10.87;;;-0.90;99.90;;;;;;4195730;28;20676;-54
2023/12/05 09:53:56;;;;;;;18.93;10.50;;;-0.80;99.90;;;;;;4193791;28;20262;-56
2023/12/05 09:56:01;;;;;;;23.83;10.73;;;-0.70;99.90;;;;;;4195576;28;20277;-59
2023/12/05 09:58:02;;;;;;;21.70;10.23;;;-0.70;99.90;;;;;;4193325;28;20785;-58
2023/12/05 10:00:05;;;;;;;23.87;12.43;;;-0.60;99.90;;;;;;4195204;28;20725;-56
2023/12/05 10:02:07;;;;;;;21.37;11.17;;;-0.50;99.90;;;;;;4194519;28;20254;-55
2023/12/05 10:04:11;;;;;;;21.30;9.97;;;-0.40;99.90;;;;;;4195083;28;20265;-58
2023/12/05 10:06:15;;;;;;;26.47;10.43;;;-0.50;99.90;;;;;;4176167;28;20845;-56
2023/12/05 10:08:17;;;;;;;21.53;10.37;;;-0.50;99.90;;;;;;4194916;28;20266;-56
2023/12/05 10:10:20;;;;;;;22.37;10.73;;;-0.50;99.90;;;;;;4194522;28;20291;-59
2023/12/05 10:12:22;;;;;;;21.03;9.73;;;-0.60;99.90;;;;;;4193864;28;20273;-58
2023/12/05 10:14:24;;;;;;;18.73;10.13;;;-0.60;99.90;;;;;;4193689;28;20315;-53
2023/12/05 10:16:27;;;;;;;21.77;10.60;;;-0.50;99.90;;;;;;4175858;28;20313;-57
2023/12/05 10:18:29;;;;;;;20.20;10.20;;;-0.60;99.90;;;;;;4194137;28;20285;-59
2023/12/05 10:20:31;;;;;;;24.03;11.10;;;-0.50;99.90;;;;;;4193902;28;20273;-58
2023/12/05 10:22:33;;;;;;;16.57;9.73;;;-0.50;99.90;;;;;;4195055;28;20676;-57